sensor_id;sensor_type;location;lat;lon;timestamp;P1;durP1;ratioP1;P2;durP2;ratioP2
45065;SDS011;30830;53.704;10.004;2023-03-13T00:01:34;27.80;;;9.65;;
45065;SDS011;30830;53.704;10.004;2023-03-13T00:04:02;29.67;;;10.27;;
45065;SDS011;30830;53.704;10.004;2023-03-13T00:06:32;31.88;;;11.18;;
45065;SDS011;30830;53.704;10.004;2023-03-13T00:08:59;28.25;;;10.15;;
45065;SDS011;30830;53.704;10.004;2023-03-13T00:11:26;35.55;;;9.73;;
45065;SDS011;30830;53.704;10.004;2023-03-13T00:13:58;31.33;;;10.20;;
45065;SDS011;30830;53.704;10.004;2023-03-13T00:16:25;30.48;;;9.57;;
45065;SDS011;30830;53.704;10.004;2023-03-13T00:18:52;34.15;;;9.32;;
45065;SDS011;30830;53.704;10.004;2023-03-13T00:21:20;23.98;;;8.75;;
45065;SDS011;30830;53.704;10.004;2023-03-13T00:23:47;28.65;;;10.52;;
45065;SDS011;30830;53.704;10.004;2023-03-13T00:26:14;33.53;;;9.57;;
45065;SDS011;30830;53.704;10.004;2023-03-13T00:28:42;30.48;;;9.60;;
45065;SDS011;30830;53.704;10.004;2023-03-13T00:31:09;31.95;;;9.30;;
45065;SDS011;30830;53.704;10.004;2023-03-13T00:33:37;20.88;;;8.50;;
45065;SDS011;30830;53.704;10.004;2023-03-13T00:36:08;28.25;;;8.13;;
45065;SDS011;30830;53.704;10.004;2023-03-13T00:38:38;28.73;;;7.53;;
45065;SDS011;30830;53.704;10.004;2023-03-13T00:41:23;28.80;;;7.90;;
45065;SDS011;30830;53.704;10.004;2023-03-13T00:43:50;29.73;;;7.55;;
45065;SDS011;30830;53.704;10.004;2023-03-13T00:46:18;27.77;;;8.15;;
45065;SDS011;30830;53.704;10.004;2023-03-13T00:48:45;28.48;;;8.40;;
45065;SDS011;30830;53.704;10.004;2023-03-13T00:51:12;32.47;;;7.90;;
45065;SDS011;30830;53.704;10.004;2023-03-13T00:53:38;30.38;;;8.20;;
45065;SDS011;30830;53.704;10.004;2023-03-13T00:56:08;34.92;;;8.55;;
45065;SDS011;30830;53.704;10.004;2023-03-13T00:58:36;27.85;;;9.30;;
45065;SDS011;30830;53.704;10.004;2023-03-13T01:03:35;25.00;;;7.93;;
45065;SDS011;30830;53.704;10.004;2023-03-13T01:06:02;25.45;;;7.68;;
45065;SDS011;30830;53.704;10.004;2023-03-13T01:08:29;22.27;;;7.35;;
45065;SDS011;30830;53.704;10.004;2023-03-13T01:11:02;25.67;;;7.07;;
45065;SDS011;30830;53.704;10.004;2023-03-13T01:13:30;19.15;;;6.78;;
45065;SDS011;30830;53.704;10.004;2023-03-13T01:16:02;31.60;;;7.95;;
45065;SDS011;30830;53.704;10.004;2023-03-13T01:18:36;25.58;;;7.65;;
45065;SDS011;30830;53.704;10.004;2023-03-13T01:21:04;23.42;;;7.03;;
45065;SDS011;30830;53.704;10.004;2023-03-13T01:23:30;23.70;;;7.03;;
45065;SDS011;30830;53.704;10.004;2023-03-13T01:25:56;19.77;;;7.03;;
45065;SDS011;30830;53.704;10.004;2023-03-13T01:28:22;23.95;;;7.45;;
45065;SDS011;30830;53.704;10.004;2023-03-13T01:30:48;22.73;;;7.25;;
45065;SDS011;30830;53.704;10.004;2023-03-13T01:33:14;28.75;;;8.23;;
45065;SDS011;30830;53.704;10.004;2023-03-13T01:35:40;21.90;;;7.25;;
45065;SDS011;30830;53.704;10.004;2023-03-13T01:38:05;25.52;;;7.32;;
45065;SDS011;30830;53.704;10.004;2023-03-13T01:40:37;24.02;;;7.00;;
45065;SDS011;30830;53.704;10.004;2023-03-13T01:43:11;27.83;;;8.18;;
45065;SDS011;30830;53.704;10.004;2023-03-13T01:51:13;25.23;;;8.07;;
45065;SDS011;30830;53.704;10.004;2023-03-13T01:53:44;23.17;;;8.57;;
45065;SDS011;30830;53.704;10.004;2023-03-13T01:56:16;26.60;;;7.40;;
45065;SDS011;30830;53.704;10.004;2023-03-13T01:58:49;28.52;;;7.68;;
45065;SDS011;30830;53.704;10.004;2023-03-13T02:01:16;28.75;;;8.02;;
45065;SDS011;30830;53.704;10.004;2023-03-13T02:03:43;26.27;;;8.25;;
45065;SDS011;30830;53.704;10.004;2023-03-13T02:06:08;17.35;;;7.35;;
45065;SDS011;30830;53.704;10.004;2023-03-13T02:08:36;22.42;;;7.68;;
45065;SDS011;30830;53.704;10.004;2023-03-13T02:13:57;33.00;;;9.10;;
45065;SDS011;30830;53.704;10.004;2023-03-13T02:16:24;31.17;;;7.63;;
45065;SDS011;30830;53.704;10.004;2023-03-13T02:18:50;23.17;;;8.23;;
45065;SDS011;30830;53.704;10.004;2023-03-13T02:21:24;16.88;;;6.28;;
45065;SDS011;30830;53.704;10.004;2023-03-13T02:24:08;30.85;;;8.25;;
45065;SDS011;30830;53.704;10.004;2023-03-13T02:26:53;22.27;;;7.95;;
45065;SDS011;30830;53.704;10.004;2023-03-13T02:29:18;25.73;;;8.07;;
45065;SDS011;30830;53.704;10.004;2023-03-13T02:31:45;27.50;;;7.93;;
45065;SDS011;30830;53.704;10.004;2023-03-13T02:34:13;23.30;;;7.78;;
45065;SDS011;30830;53.704;10.004;2023-03-13T02:36:41;24.67;;;7.72;;
45065;SDS011;30830;53.704;10.004;2023-03-13T02:39:08;24.02;;;7.18;;
45065;SDS011;30830;53.704;10.004;2023-03-13T02:41:36;25.00;;;6.97;;
45065;SDS011;30830;53.704;10.004;2023-03-13T02:44:04;21.08;;;7.72;;
45065;SDS011;30830;53.704;10.004;2023-03-13T02:46:30;16.70;;;6.93;;
45065;SDS011;30830;53.704;10.004;2023-03-13T02:49:18;31.13;;;7.43;;
45065;SDS011;30830;53.704;10.004;2023-03-13T02:51:47;20.70;;;7.35;;
45065;SDS011;30830;53.704;10.004;2023-03-13T02:54:15;27.05;;;7.88;;
45065;SDS011;30830;53.704;10.004;2023-03-13T02:56:44;27.85;;;7.88;;
45065;SDS011;30830;53.704;10.004;2023-03-13T02:59:14;20.25;;;5.88;;
45065;SDS011;30830;53.704;10.004;2023-03-13T03:01:40;29.75;;;8.32;;
45065;SDS011;30830;53.704;10.004;2023-03-13T03:04:06;32.78;;;7.22;;
45065;SDS011;30830;53.704;10.004;2023-03-13T03:06:31;29.73;;;7.03;;
45065;SDS011;30830;53.704;10.004;2023-03-13T03:08:57;24.45;;;7.70;;
45065;SDS011;30830;53.704;10.004;2023-03-13T03:11:22;29.35;;;6.88;;
45065;SDS011;30830;53.704;10.004;2023-03-13T03:13:48;25.65;;;6.60;;
45065;SDS011;30830;53.704;10.004;2023-03-13T03:16:14;22.25;;;6.22;;
45065;SDS011;30830;53.704;10.004;2023-03-13T03:18:42;24.08;;;7.50;;
45065;SDS011;30830;53.704;10.004;2023-03-13T03:21:08;18.60;;;5.63;;
45065;SDS011;30830;53.704;10.004;2023-03-13T03:23:34;19.95;;;5.75;;
45065;SDS011;30830;53.704;10.004;2023-03-13T03:26:00;30.42;;;7.40;;
45065;SDS011;30830;53.704;10.004;2023-03-13T03:28:27;30.15;;;6.88;;
45065;SDS011;30830;53.704;10.004;2023-03-13T03:30:53;29.40;;;6.32;;
45065;SDS011;30830;53.704;10.004;2023-03-13T03:33:19;21.05;;;6.20;;
45065;SDS011;30830;53.704;10.004;2023-03-13T03:35:46;21.88;;;6.45;;
45065;SDS011;30830;53.704;10.004;2023-03-13T03:38:12;26.65;;;6.70;;
45065;SDS011;30830;53.704;10.004;2023-03-13T03:40:37;26.70;;;7.35;;
45065;SDS011;30830;53.704;10.004;2023-03-13T03:43:03;21.88;;;6.78;;
45065;SDS011;30830;53.704;10.004;2023-03-13T03:45:28;24.20;;;6.57;;
45065;SDS011;30830;53.704;10.004;2023-03-13T03:47:54;27.35;;;6.75;;
45065;SDS011;30830;53.704;10.004;2023-03-13T03:50:23;23.45;;;7.03;;
45065;SDS011;30830;53.704;10.004;2023-03-13T03:52:49;24.75;;;7.07;;
45065;SDS011;30830;53.704;10.004;2023-03-13T03:55:15;29.67;;;6.70;;
45065;SDS011;30830;53.704;10.004;2023-03-13T03:57:41;24.92;;;6.40;;
45065;SDS011;30830;53.704;10.004;2023-03-13T04:00:07;18.45;;;5.53;;
45065;SDS011;30830;53.704;10.004;2023-03-13T04:02:34;23.08;;;6.43;;
45065;SDS011;30830;53.704;10.004;2023-03-13T04:05:01;18.45;;;5.35;;
45065;SDS011;30830;53.704;10.004;2023-03-13T04:07:26;17.73;;;5.03;;
45065;SDS011;30830;53.704;10.004;2023-03-13T04:09:52;22.05;;;6.50;;
45065;SDS011;30830;53.704;10.004;2023-03-13T04:12:17;17.40;;;5.55;;
45065;SDS011;30830;53.704;10.004;2023-03-13T04:14:43;20.58;;;5.25;;
45065;SDS011;30830;53.704;10.004;2023-03-13T04:17:09;21.25;;;7.00;;
45065;SDS011;30830;53.704;10.004;2023-03-13T04:19:34;20.58;;;5.60;;
45065;SDS011;30830;53.704;10.004;2023-03-13T04:22:00;15.27;;;4.72;;
45065;SDS011;30830;53.704;10.004;2023-03-13T04:24:25;21.40;;;5.30;;
45065;SDS011;30830;53.704;10.004;2023-03-13T04:26:51;21.77;;;5.70;;
45065;SDS011;30830;53.704;10.004;2023-03-13T04:29:19;17.40;;;6.40;;
45065;SDS011;30830;53.704;10.004;2023-03-13T04:31:45;19.60;;;4.65;;
45065;SDS011;30830;53.704;10.004;2023-03-13T04:34:10;21.33;;;6.30;;
45065;SDS011;30830;53.704;10.004;2023-03-13T04:36:36;20.45;;;5.68;;
45065;SDS011;30830;53.704;10.004;2023-03-13T04:39:01;18.40;;;5.07;;
45065;SDS011;30830;53.704;10.004;2023-03-13T04:41:27;17.02;;;5.90;;
45065;SDS011;30830;53.704;10.004;2023-03-13T04:43:53;20.60;;;6.35;;
45065;SDS011;30830;53.704;10.004;2023-03-13T04:46:19;19.70;;;6.35;;
45065;SDS011;30830;53.704;10.004;2023-03-13T04:48:44;21.45;;;5.90;;
45065;SDS011;30830;53.704;10.004;2023-03-13T04:51:10;26.02;;;6.18;;
45065;SDS011;30830;53.704;10.004;2023-03-13T04:53:37;18.60;;;6.72;;
45065;SDS011;30830;53.704;10.004;2023-03-13T04:56:02;15.88;;;5.10;;
45065;SDS011;30830;53.704;10.004;2023-03-13T04:58:28;23.80;;;5.38;;
45065;SDS011;30830;53.704;10.004;2023-03-13T05:00:54;24.52;;;6.30;;
45065;SDS011;30830;53.704;10.004;2023-03-13T05:03:21;22.27;;;6.03;;
45065;SDS011;30830;53.704;10.004;2023-03-13T05:05:47;20.70;;;5.82;;
45065;SDS011;30830;53.704;10.004;2023-03-13T05:08:12;19.30;;;5.28;;
45065;SDS011;30830;53.704;10.004;2023-03-13T05:10:38;22.92;;;5.57;;
45065;SDS011;30830;53.704;10.004;2023-03-13T05:13:05;20.80;;;5.28;;
45065;SDS011;30830;53.704;10.004;2023-03-13T05:15:31;19.70;;;5.57;;
45065;SDS011;30830;53.704;10.004;2023-03-13T05:17:56;15.90;;;6.80;;
45065;SDS011;30830;53.704;10.004;2023-03-13T05:20:22;19.70;;;5.10;;
45065;SDS011;30830;53.704;10.004;2023-03-13T05:22:47;14.00;;;5.15;;
45065;SDS011;30830;53.704;10.004;2023-03-13T05:25:13;15.63;;;5.78;;
45065;SDS011;30830;53.704;10.004;2023-03-13T05:27:39;20.33;;;5.90;;
45065;SDS011;30830;53.704;10.004;2023-03-13T05:30:05;19.52;;;6.05;;
45065;SDS011;30830;53.704;10.004;2023-03-13T05:32:31;21.15;;;5.35;;
45065;SDS011;30830;53.704;10.004;2023-03-13T05:34:56;15.38;;;4.65;;
45065;SDS011;30830;53.704;10.004;2023-03-13T05:37:22;18.63;;;5.45;;
45065;SDS011;30830;53.704;10.004;2023-03-13T05:39:47;12.50;;;3.78;;
45065;SDS011;30830;53.704;10.004;2023-03-13T05:42:13;14.45;;;5.55;;
45065;SDS011;30830;53.704;10.004;2023-03-13T05:44:39;11.80;;;4.75;;
45065;SDS011;30830;53.704;10.004;2023-03-13T05:47:04;15.05;;;5.18;;
45065;SDS011;30830;53.704;10.004;2023-03-13T05:49:30;15.98;;;6.18;;
45065;SDS011;30830;53.704;10.004;2023-03-13T05:51:55;15.60;;;4.47;;
45065;SDS011;30830;53.704;10.004;2023-03-13T05:54:21;10.52;;;4.15;;
45065;SDS011;30830;53.704;10.004;2023-03-13T05:56:46;11.57;;;4.82;;
45065;SDS011;30830;53.704;10.004;2023-03-13T05:59:14;13.05;;;4.35;;
45065;SDS011;30830;53.704;10.004;2023-03-13T06:01:40;8.77;;;3.95;;
45065;SDS011;30830;53.704;10.004;2023-03-13T06:04:05;8.38;;;3.47;;
45065;SDS011;30830;53.704;10.004;2023-03-13T06:06:31;8.68;;;3.80;;
45065;SDS011;30830;53.704;10.004;2023-03-13T06:08:57;9.95;;;4.22;;
45065;SDS011;30830;53.704;10.004;2023-03-13T06:11:22;9.25;;;3.30;;
45065;SDS011;30830;53.704;10.004;2023-03-13T06:13:49;10.82;;;3.50;;
45065;SDS011;30830;53.704;10.004;2023-03-13T06:16:16;6.85;;;3.53;;
45065;SDS011;30830;53.704;10.004;2023-03-13T06:18:41;6.93;;;2.95;;
45065;SDS011;30830;53.704;10.004;2023-03-13T06:21:07;5.75;;;3.08;;
45065;SDS011;30830;53.704;10.004;2023-03-13T06:23:32;4.72;;;2.25;;
45065;SDS011;30830;53.704;10.004;2023-03-13T06:25:59;5.70;;;2.22;;
45065;SDS011;30830;53.704;10.004;2023-03-13T06:28:25;8.18;;;2.50;;
45065;SDS011;30830;53.704;10.004;2023-03-13T06:30:50;4.72;;;2.28;;
45065;SDS011;30830;53.704;10.004;2023-03-13T06:33:16;6.85;;;2.28;;
45065;SDS011;30830;53.704;10.004;2023-03-13T06:35:42;3.75;;;2.22;;
45065;SDS011;30830;53.704;10.004;2023-03-13T06:38:08;5.50;;;1.90;;
45065;SDS011;30830;53.704;10.004;2023-03-13T06:40:34;5.65;;;3.38;;
45065;SDS011;30830;53.704;10.004;2023-03-13T06:43:10;12.77;;;8.13;;
45065;SDS011;30830;53.704;10.004;2023-03-13T06:45:35;31.45;;;16.50;;
45065;SDS011;30830;53.704;10.004;2023-03-13T06:48:02;6.80;;;4.90;;
45065;SDS011;30830;53.704;10.004;2023-03-13T06:50:27;9.23;;;5.20;;
45065;SDS011;30830;53.704;10.004;2023-03-13T06:52:53;9.38;;;6.57;;
45065;SDS011;30830;53.704;10.004;2023-03-13T06:55:19;9.05;;;4.30;;
45065;SDS011;30830;53.704;10.004;2023-03-13T06:57:48;4.68;;;3.00;;
45065;SDS011;30830;53.704;10.004;2023-03-13T07:00:15;5.28;;;2.83;;
45065;SDS011;30830;53.704;10.004;2023-03-13T07:02:40;3.40;;;2.63;;
45065;SDS011;30830;53.704;10.004;2023-03-13T07:05:06;2.83;;;2.28;;
45065;SDS011;30830;53.704;10.004;2023-03-13T07:07:32;4.32;;;2.33;;
45065;SDS011;30830;53.704;10.004;2023-03-13T07:09:58;3.83;;;1.77;;
45065;SDS011;30830;53.704;10.004;2023-03-13T07:12:24;4.68;;;2.45;;
45065;SDS011;30830;53.704;10.004;2023-03-13T07:14:49;3.53;;;2.13;;
45065;SDS011;30830;53.704;10.004;2023-03-13T07:17:15;4.55;;;2.10;;
45065;SDS011;30830;53.704;10.004;2023-03-13T07:19:40;2.85;;;1.70;;
45065;SDS011;30830;53.704;10.004;2023-03-13T07:22:06;4.05;;;1.77;;
45065;SDS011;30830;53.704;10.004;2023-03-13T07:24:31;2.83;;;1.73;;
45065;SDS011;30830;53.704;10.004;2023-03-13T07:26:57;3.28;;;2.00;;
45065;SDS011;30830;53.704;10.004;2023-03-13T07:29:22;2.95;;;1.88;;
45065;SDS011;30830;53.704;10.004;2023-03-13T07:31:48;5.43;;;2.22;;
45065;SDS011;30830;53.704;10.004;2023-03-13T07:34:13;4.68;;;2.42;;
45065;SDS011;30830;53.704;10.004;2023-03-13T07:36:39;3.95;;;2.13;;
45065;SDS011;30830;53.704;10.004;2023-03-13T07:39:05;4.82;;;2.60;;
45065;SDS011;30830;53.704;10.004;2023-03-13T07:41:31;4.45;;;2.28;;
45065;SDS011;30830;53.704;10.004;2023-03-13T07:43:57;3.50;;;2.28;;
45065;SDS011;30830;53.704;10.004;2023-03-13T07:46:23;2.92;;;1.90;;
45065;SDS011;30830;53.704;10.004;2023-03-13T07:48:49;2.60;;;2.22;;
45065;SDS011;30830;53.704;10.004;2023-03-13T07:51:17;5.43;;;2.33;;
45065;SDS011;30830;53.704;10.004;2023-03-13T07:53:47;3.55;;;2.30;;
45065;SDS011;30830;53.704;10.004;2023-03-13T07:56:14;4.38;;;2.50;;
45065;SDS011;30830;53.704;10.004;2023-03-13T07:58:42;3.38;;;2.55;;
45065;SDS011;30830;53.704;10.004;2023-03-13T08:03:34;5.30;;;2.88;;
45065;SDS011;30830;53.704;10.004;2023-03-13T08:06:02;5.15;;;2.60;;
45065;SDS011;30830;53.704;10.004;2023-03-13T08:08:30;3.95;;;2.35;;
45065;SDS011;30830;53.704;10.004;2023-03-13T08:11:05;3.08;;;2.28;;
45065;SDS011;30830;53.704;10.004;2023-03-13T08:13:33;3.17;;;2.70;;
45065;SDS011;30830;53.704;10.004;2023-03-13T08:16:09;3.60;;;3.10;;
45065;SDS011;30830;53.704;10.004;2023-03-13T08:18:40;3.60;;;3.20;;
45065;SDS011;30830;53.704;10.004;2023-03-13T08:21:08;3.40;;;3.10;;
45065;SDS011;30830;53.704;10.004;2023-03-13T08:23:35;4.65;;;3.65;;
45065;SDS011;30830;53.704;10.004;2023-03-13T08:26:11;4.40;;;3.53;;
45065;SDS011;30830;53.704;10.004;2023-03-13T08:28:38;6.93;;;3.65;;
45065;SDS011;30830;53.704;10.004;2023-03-13T08:31:05;4.75;;;2.95;;
45065;SDS011;30830;53.704;10.004;2023-03-13T08:33:32;4.53;;;3.67;;
45065;SDS011;30830;53.704;10.004;2023-03-13T08:35:57;4.78;;;3.33;;
45065;SDS011;30830;53.704;10.004;2023-03-13T08:38:23;4.75;;;3.38;;
45065;SDS011;30830;53.704;10.004;2023-03-13T08:40:48;4.72;;;3.58;;
45065;SDS011;30830;53.704;10.004;2023-03-13T08:43:15;4.65;;;3.45;;
45065;SDS011;30830;53.704;10.004;2023-03-13T08:45:40;6.28;;;3.10;;
45065;SDS011;30830;53.704;10.004;2023-03-13T08:48:06;4.13;;;2.97;;
45065;SDS011;30830;53.704;10.004;2023-03-13T08:50:31;3.25;;;2.95;;
45065;SDS011;30830;53.704;10.004;2023-03-13T08:52:57;4.72;;;3.60;;
45065;SDS011;30830;53.704;10.004;2023-03-13T08:55:22;4.70;;;3.55;;
45065;SDS011;30830;53.704;10.004;2023-03-13T08:57:48;5.63;;;4.20;;
45065;SDS011;30830;53.704;10.004;2023-03-13T09:00:14;4.70;;;3.88;;
45065;SDS011;30830;53.704;10.004;2023-03-13T09:02:40;6.40;;;4.18;;
45065;SDS011;30830;53.704;10.004;2023-03-13T09:05:05;8.30;;;7.03;;
45065;SDS011;30830;53.704;10.004;2023-03-13T09:07:31;10.75;;;7.45;;
45065;SDS011;30830;53.704;10.004;2023-03-13T09:09:57;10.32;;;7.00;;
45065;SDS011;30830;53.704;10.004;2023-03-13T09:12:22;10.32;;;8.27;;
45065;SDS011;30830;53.704;10.004;2023-03-13T09:14:48;10.68;;;7.53;;
45065;SDS011;30830;53.704;10.004;2023-03-13T09:17:13;8.57;;;7.05;;
45065;SDS011;30830;53.704;10.004;2023-03-13T09:19:39;11.00;;;8.23;;
45065;SDS011;30830;53.704;10.004;2023-03-13T09:22:04;15.75;;;10.27;;
45065;SDS011;30830;53.704;10.004;2023-03-13T09:24:30;15.85;;;10.20;;
45065;SDS011;30830;53.704;10.004;2023-03-13T09:26:55;8.35;;;6.80;;
45065;SDS011;30830;53.704;10.004;2023-03-13T09:29:21;7.53;;;6.43;;
45065;SDS011;30830;53.704;10.004;2023-03-13T09:31:46;8.63;;;6.70;;
45065;SDS011;30830;53.704;10.004;2023-03-13T09:34:12;9.18;;;6.70;;
45065;SDS011;30830;53.704;10.004;2023-03-13T09:36:37;9.07;;;6.93;;
45065;SDS011;30830;53.704;10.004;2023-03-13T09:39:03;10.10;;;6.80;;
45065;SDS011;30830;53.704;10.004;2023-03-13T09:41:39;9.57;;;7.05;;
45065;SDS011;30830;53.704;10.004;2023-03-13T09:52:23;8.50;;;5.80;;
45065;SDS011;30830;53.704;10.004;2023-03-13T09:57:41;12.07;;;6.68;;
45065;SDS011;30830;53.704;10.004;2023-03-13T10:02:53;9.60;;;6.20;;
45065;SDS011;30830;53.704;10.004;2023-03-13T10:05:22;10.60;;;7.47;;
45065;SDS011;30830;53.704;10.004;2023-03-13T10:07:55;13.27;;;7.88;;
45065;SDS011;30830;53.704;10.004;2023-03-13T10:11:16;9.68;;;7.80;;
45065;SDS011;30830;53.704;10.004;2023-03-13T10:16:34;8.52;;;7.07;;
45065;SDS011;30830;53.704;10.004;2023-03-13T10:19:12;9.80;;;7.30;;
45065;SDS011;30830;53.704;10.004;2023-03-13T10:21:40;11.73;;;8.05;;
45065;SDS011;30830;53.704;10.004;2023-03-13T10:24:29;10.60;;;7.68;;
45065;SDS011;30830;53.704;10.004;2023-03-13T10:27:02;9.65;;;8.15;;
45065;SDS011;30830;53.704;10.004;2023-03-13T10:29:28;12.95;;;7.82;;
45065;SDS011;30830;53.704;10.004;2023-03-13T10:31:55;10.60;;;8.35;;
45065;SDS011;30830;53.704;10.004;2023-03-13T10:34:23;9.60;;;6.95;;
45065;SDS011;30830;53.704;10.004;2023-03-13T10:36:54;9.13;;;7.35;;
45065;SDS011;30830;53.704;10.004;2023-03-13T10:39:25;10.77;;;8.27;;
45065;SDS011;30830;53.704;10.004;2023-03-13T10:42:07;8.23;;;7.13;;
45065;SDS011;30830;53.704;10.004;2023-03-13T10:44:35;9.43;;;6.60;;
45065;SDS011;30830;53.704;10.004;2023-03-13T10:47:01;11.93;;;7.72;;
45065;SDS011;30830;53.704;10.004;2023-03-13T10:49:29;8.85;;;7.18;;
45065;SDS011;30830;53.704;10.004;2023-03-13T10:51:57;9.93;;;6.85;;
45065;SDS011;30830;53.704;10.004;2023-03-13T10:54:26;7.80;;;6.20;;
45065;SDS011;30830;53.704;10.004;2023-03-13T10:57:07;6.88;;;5.55;;
45065;SDS011;30830;53.704;10.004;2023-03-13T10:59:42;8.45;;;5.32;;
45065;SDS011;30830;53.704;10.004;2023-03-13T11:02:19;5.07;;;4.43;;
45065;SDS011;30830;53.704;10.004;2023-03-13T11:04:48;5.47;;;4.28;;
45065;SDS011;30830;53.704;10.004;2023-03-13T11:07:20;4.15;;;3.20;;
45065;SDS011;30830;53.704;10.004;2023-03-13T11:12:44;6.95;;;4.10;;
45065;SDS011;30830;53.704;10.004;2023-03-13T11:15:14;7.18;;;3.58;;
45065;SDS011;30830;53.704;10.004;2023-03-13T11:17:42;3.42;;;3.13;;
45065;SDS011;30830;53.704;10.004;2023-03-13T11:25:45;2.70;;;2.50;;
45065;SDS011;30830;53.704;10.004;2023-03-13T11:33:57;4.70;;;2.57;;
45065;SDS011;30830;53.704;10.004;2023-03-13T11:36:34;2.85;;;2.63;;
45065;SDS011;30830;53.704;10.004;2023-03-13T11:39:17;3.88;;;3.15;;
45065;SDS011;30830;53.704;10.004;2023-03-13T11:42:03;4.25;;;3.42;;
45065;SDS011;30830;53.704;10.004;2023-03-13T11:55:41;2.92;;;1.77;;
45065;SDS011;30830;53.704;10.004;2023-03-13T11:58:25;2.22;;;1.73;;
45065;SDS011;30830;53.704;10.004;2023-03-13T12:01:07;2.75;;;1.73;;
45065;SDS011;30830;53.704;10.004;2023-03-13T12:03:55;4.82;;;1.70;;
45065;SDS011;30830;53.704;10.004;2023-03-13T12:06:37;3.35;;;1.50;;
45065;SDS011;30830;53.704;10.004;2023-03-13T12:09:28;1.88;;;1.50;;
45065;SDS011;30830;53.704;10.004;2023-03-13T12:11:56;4.60;;;1.58;;
45065;SDS011;30830;53.704;10.004;2023-03-13T12:14:32;3.55;;;1.80;;
45065;SDS011;30830;53.704;10.004;2023-03-13T12:17:00;3.33;;;1.70;;
45065;SDS011;30830;53.704;10.004;2023-03-13T12:19:36;3.78;;;1.70;;
45065;SDS011;30830;53.704;10.004;2023-03-13T12:22:17;3.58;;;1.77;;
45065;SDS011;30830;53.704;10.004;2023-03-13T12:24:59;3.63;;;1.83;;
45065;SDS011;30830;53.704;10.004;2023-03-13T12:27:30;5.50;;;1.80;;
45065;SDS011;30830;53.704;10.004;2023-03-13T12:32:33;4.43;;;1.77;;
45065;SDS011;30830;53.704;10.004;2023-03-13T12:37:57;3.22;;;1.40;;
45065;SDS011;30830;53.704;10.004;2023-03-13T12:40:49;2.78;;;1.10;;
45065;SDS011;30830;53.704;10.004;2023-03-13T12:43:17;2.75;;;1.42;;
45065;SDS011;30830;53.704;10.004;2023-03-13T12:50:50;1.95;;;1.15;;
45065;SDS011;30830;53.704;10.004;2023-03-13T12:56:36;3.17;;;1.45;;
45065;SDS011;30830;53.704;10.004;2023-03-13T13:01:56;2.75;;;1.42;;
45065;SDS011;30830;53.704;10.004;2023-03-13T13:04:24;2.00;;;1.45;;
45065;SDS011;30830;53.704;10.004;2023-03-13T13:09:24;4.28;;;1.63;;
45065;SDS011;30830;53.704;10.004;2023-03-13T13:11:52;2.83;;;1.35;;
45065;SDS011;30830;53.704;10.004;2023-03-13T13:20:27;2.85;;;1.45;;
45065;SDS011;30830;53.704;10.004;2023-03-13T13:26:37;2.33;;;1.38;;
45065;SDS011;30830;53.704;10.004;2023-03-13T13:37:02;2.78;;;1.13;;
45065;SDS011;30830;53.704;10.004;2023-03-13T13:39:51;3.42;;;1.58;;
45065;SDS011;30830;53.704;10.004;2023-03-13T13:45:01;3.58;;;1.13;;
45065;SDS011;30830;53.704;10.004;2023-03-13T13:47:39;2.55;;;1.55;;
45065;SDS011;30830;53.704;10.004;2023-03-13T13:50:19;6.43;;;1.20;;
45065;SDS011;30830;53.704;10.004;2023-03-13T13:52:47;4.35;;;1.63;;
45065;SDS011;30830;53.704;10.004;2023-03-13T14:00:49;1.92;;;0.93;;
45065;SDS011;30830;53.704;10.004;2023-03-13T14:03:28;3.13;;;1.10;;
45065;SDS011;30830;53.704;10.004;2023-03-13T14:05:58;4.20;;;1.25;;
45065;SDS011;30830;53.704;10.004;2023-03-13T14:08:30;1.13;;;0.80;;
45065;SDS011;30830;53.704;10.004;2023-03-13T14:13:43;1.42;;;1.15;;
45065;SDS011;30830;53.704;10.004;2023-03-13T14:16:25;3.47;;;1.40;;
45065;SDS011;30830;53.704;10.004;2023-03-13T14:18:51;2.67;;;1.10;;
45065;SDS011;30830;53.704;10.004;2023-03-13T14:21:21;2.55;;;1.40;;
45065;SDS011;30830;53.704;10.004;2023-03-13T14:23:48;1.33;;;0.80;;
45065;SDS011;30830;53.704;10.004;2023-03-13T14:28:42;3.20;;;1.73;;
45065;SDS011;30830;53.704;10.004;2023-03-13T14:31:09;9.63;;;1.83;;
45065;SDS011;30830;53.704;10.004;2023-03-13T14:33:56;1.42;;;1.10;;
45065;SDS011;30830;53.704;10.004;2023-03-13T14:36:24;3.08;;;1.17;;
45065;SDS011;30830;53.704;10.004;2023-03-13T14:38:51;1.85;;;1.40;;
45065;SDS011;30830;53.704;10.004;2023-03-13T14:41:23;4.45;;;1.20;;
45065;SDS011;30830;53.704;10.004;2023-03-13T14:43:51;2.47;;;1.17;;
45065;SDS011;30830;53.704;10.004;2023-03-13T14:46:30;2.08;;;0.90;;
45065;SDS011;30830;53.704;10.004;2023-03-13T14:49:05;2.75;;;1.27;;
45065;SDS011;30830;53.704;10.004;2023-03-13T14:51:35;2.03;;;1.55;;
45065;SDS011;30830;53.704;10.004;2023-03-13T14:54:03;3.38;;;1.20;;
45065;SDS011;30830;53.704;10.004;2023-03-13T14:59:17;2.20;;;1.38;;
45065;SDS011;30830;53.704;10.004;2023-03-13T15:01:56;1.27;;;1.00;;
45065;SDS011;30830;53.704;10.004;2023-03-13T15:04:47;2.25;;;0.93;;
45065;SDS011;30830;53.704;10.004;2023-03-13T15:07:17;2.95;;;1.10;;
45065;SDS011;30830;53.704;10.004;2023-03-13T15:09:43;1.80;;;1.02;;
45065;SDS011;30830;53.704;10.004;2023-03-13T15:12:17;3.15;;;1.02;;
45065;SDS011;30830;53.704;10.004;2023-03-13T15:14:46;3.57;;;2.10;;
45065;SDS011;30830;53.704;10.004;2023-03-13T15:17:14;2.35;;;1.08;;
45065;SDS011;30830;53.704;10.004;2023-03-13T15:19:48;1.92;;;1.23;;
45065;SDS011;30830;53.704;10.004;2023-03-13T15:22:15;3.33;;;1.60;;
45065;SDS011;30830;53.704;10.004;2023-03-13T15:24:44;3.45;;;1.23;;
45065;SDS011;30830;53.704;10.004;2023-03-13T15:27:16;2.60;;;1.20;;
45065;SDS011;30830;53.704;10.004;2023-03-13T15:29:44;1.63;;;1.38;;
45065;SDS011;30830;53.704;10.004;2023-03-13T15:32:21;2.10;;;1.20;;
45065;SDS011;30830;53.704;10.004;2023-03-13T15:34:58;2.35;;;1.25;;
45065;SDS011;30830;53.704;10.004;2023-03-13T15:37:26;1.63;;;1.20;;
45065;SDS011;30830;53.704;10.004;2023-03-13T15:39:53;2.55;;;1.10;;
45065;SDS011;30830;53.704;10.004;2023-03-13T15:42:19;2.33;;;0.98;;
45065;SDS011;30830;53.704;10.004;2023-03-13T15:44:45;0.82;;;0.82;;
45065;SDS011;30830;53.704;10.004;2023-03-13T15:47:11;4.35;;;1.33;;
45065;SDS011;30830;53.704;10.004;2023-03-13T15:49:41;3.28;;;1.38;;
45065;SDS011;30830;53.704;10.004;2023-03-13T15:52:17;1.92;;;1.08;;
45065;SDS011;30830;53.704;10.004;2023-03-13T15:54:47;2.10;;;0.90;;
45065;SDS011;30830;53.704;10.004;2023-03-13T15:57:13;3.25;;;1.30;;
45065;SDS011;30830;53.704;10.004;2023-03-13T15:59:43;2.85;;;1.35;;
45065;SDS011;30830;53.704;10.004;2023-03-13T16:02:13;2.55;;;1.20;;
45065;SDS011;30830;53.704;10.004;2023-03-13T16:04:40;3.13;;;1.48;;
45065;SDS011;30830;53.704;10.004;2023-03-13T16:07:12;1.63;;;1.10;;
45065;SDS011;30830;53.704;10.004;2023-03-13T16:09:39;3.15;;;0.98;;
45065;SDS011;30830;53.704;10.004;2023-03-13T16:12:06;0.80;;;0.80;;
45065;SDS011;30830;53.704;10.004;2023-03-13T16:14:32;1.85;;;0.95;;
45065;SDS011;30830;53.704;10.004;2023-03-13T16:16:59;1.75;;;1.17;;
45065;SDS011;30830;53.704;10.004;2023-03-13T16:19:26;2.00;;;1.35;;
45065;SDS011;30830;53.704;10.004;2023-03-13T16:21:51;2.38;;;1.10;;
45065;SDS011;30830;53.704;10.004;2023-03-13T16:24:17;3.15;;;1.20;;
45065;SDS011;30830;53.704;10.004;2023-03-13T16:26:43;1.70;;;0.90;;